createdAt,value
2023-01-27T00:00:40.965Z,24.40
2023-01-27T00:03:14.280Z,24.90
2023-01-27T00:05:42.951Z,24.40
2023-01-27T00:08:11.730Z,24.40
2023-01-27T00:10:40.428Z,22.30
2023-01-27T00:13:28.249Z,22.70
2023-01-27T00:15:57.990Z,25.10
2023-01-27T00:18:27.168Z,23.30
2023-01-27T00:21:15.195Z,27.80
2023-01-27T00:24:02.581Z,23.70
2023-01-27T00:26:31.745Z,22.30
2023-01-27T00:29:00.610Z,25.20
2023-01-27T00:31:47.812Z,23.50
2023-01-27T00:34:16.617Z,24.00
2023-01-27T00:36:45.200Z,25.80
2023-01-27T00:39:15.561Z,24.70
2023-01-27T00:41:45.471Z,24.50
2023-01-27T00:44:14.041Z,26.80
2023-01-27T00:46:47.589Z,24.10
2023-01-27T00:49:16.329Z,22.90
2023-01-27T00:51:45.094Z,22.10
2023-01-27T00:54:18.195Z,19.60
2023-01-27T00:56:48.692Z,19.80
2023-01-27T00:59:17.212Z,20.00
2023-01-27T01:01:50.597Z,20.00
2023-01-27T01:04:19.175Z,20.00
2023-01-27T01:06:48.471Z,20.00
2023-01-27T01:09:17.584Z,18.40
2023-01-27T01:11:46.153Z,17.10
2023-01-27T01:14:15.349Z,15.80
2023-01-27T01:16:44.760Z,18.10
2023-01-27T01:19:14.357Z,17.30
2023-01-27T01:21:42.983Z,18.20
2023-01-27T01:24:12.082Z,17.80
2023-01-27T01:26:40.732Z,17.70
2023-01-27T01:29:10.430Z,17.10
2023-01-27T01:31:41.095Z,17.50
2023-01-27T01:34:09.851Z,17.40
2023-01-27T01:36:39.351Z,19.00
2023-01-27T01:39:08.249Z,18.70
2023-01-27T01:41:37.342Z,18.50
2023-01-27T01:44:25.478Z,19.10
2023-01-27T01:46:54.966Z,18.70
2023-01-27T01:52:01.130Z,16.50
2023-01-27T01:54:33.840Z,18.60
2023-01-27T01:57:10.728Z,17.60
2023-01-27T01:59:45.037Z,17.60
2023-01-27T02:02:15.299Z,16.60
2023-01-27T02:07:18.570Z,18.20
2023-01-27T02:09:47.095Z,16.90
2023-01-27T02:12:15.937Z,16.30
2023-01-27T02:14:46.979Z,18.60
2023-01-27T02:17:16.091Z,19.60
2023-01-27T02:20:11.291Z,13.20
2023-01-27T02:22:45.815Z,18.20
2023-01-27T02:25:22.505Z,17.80
2023-01-27T02:27:53.523Z,17.10
2023-01-27T02:30:22.419Z,17.30
2023-01-27T02:32:51.604Z,13.60
2023-01-27T02:35:43.154Z,17.10
2023-01-27T02:38:13.142Z,16.60
2023-01-27T02:40:41.725Z,20.80
2023-01-27T02:43:10.621Z,21.10
2023-01-27T02:45:39.555Z,23.10
2023-01-27T02:48:08.191Z,25.40
2023-01-27T02:50:38.515Z,21.10
2023-01-27T02:53:08.350Z,22.80
2023-01-27T02:55:37.744Z,19.70
2023-01-27T02:58:06.825Z,19.60
2023-01-27T03:00:47.436Z,20.80
2023-01-27T03:03:16.291Z,18.20
2023-01-27T03:05:45.683Z,17.20
2023-01-27T03:08:14.268Z,20.00
2023-01-27T03:10:44.098Z,19.40
2023-01-27T03:13:12.865Z,20.30
2023-01-27T03:16:00.359Z,21.40
2023-01-27T03:18:29.896Z,22.10
2023-01-27T03:21:06.838Z,21.50
2023-01-27T03:23:35.459Z,21.00
2023-01-27T03:26:07.110Z,19.70
2023-01-27T03:28:36.559Z,20.10
2023-01-27T03:31:10.541Z,21.40
2023-01-27T03:33:47.979Z,21.70
2023-01-27T03:37:02.071Z,20.10
2023-01-27T03:39:49.660Z,21.70
2023-01-27T03:42:36.821Z,21.80
2023-01-27T03:45:25.263Z,21.50
2023-01-27T03:47:54.151Z,20.20
2023-01-27T03:50:37.965Z,19.30
2023-01-27T03:53:07.395Z,20.30
2023-01-27T03:55:37.105Z,21.30
2023-01-27T03:58:20.560Z,20.20
2023-01-27T04:00:54.257Z,21.00
2023-01-27T04:03:43.105Z,22.30
2023-01-27T04:06:52.035Z,19.60
2023-01-27T04:09:23.793Z,20.50
2023-01-27T04:11:55.688Z,21.70
2023-01-27T04:14:31.295Z,21.50
2023-01-27T04:17:15.031Z,21.60
2023-01-27T04:19:43.835Z,21.10
2023-01-27T04:22:13.327Z,21.00
2023-01-27T04:24:43.958Z,21.60
2023-01-27T04:27:14.280Z,21.60
2023-01-27T04:29:43.000Z,20.50
2023-01-27T04:32:12.989Z,21.00
2023-01-27T04:34:41.690Z,21.30
2023-01-27T04:37:10.669Z,22.40
2023-01-27T04:39:42.117Z,21.90
2023-01-27T04:42:11.206Z,21.80
2023-01-27T04:44:40.017Z,22.80
2023-01-27T04:47:09.091Z,23.40
2023-01-27T04:49:37.776Z,20.40
2023-01-27T04:52:07.016Z,19.40
2023-01-27T04:54:36.293Z,22.80
2023-01-27T04:57:05.986Z,22.70
2023-01-27T04:59:34.670Z,21.70
2023-01-27T05:02:05.031Z,21.00
2023-01-27T05:04:34.017Z,22.50
2023-01-27T05:07:03.085Z,22.40
2023-01-27T05:09:32.077Z,22.30
2023-01-27T05:12:00.867Z,20.60
2023-01-27T05:14:30.523Z,21.80
2023-01-27T05:16:59.237Z,21.50
2023-01-27T05:19:28.147Z,23.00
2023-01-27T05:21:57.144Z,22.20
2023-01-27T05:24:25.874Z,21.70
2023-01-27T05:26:58.105Z,23.70
2023-01-27T05:29:26.794Z,23.70
2023-01-27T05:31:55.900Z,19.40
2023-01-27T05:34:25.074Z,20.90
2023-01-27T05:36:53.737Z,20.70
2023-01-27T05:39:22.747Z,20.70
2023-01-27T05:41:51.468Z,21.50
2023-01-27T05:44:20.325Z,22.20
2023-01-27T05:46:49.484Z,22.90
2023-01-27T05:49:18.207Z,20.40
2023-01-27T05:51:47.515Z,19.10
2023-01-27T05:54:16.706Z,17.90
2023-01-27T05:56:45.293Z,20.10
2023-01-27T05:59:14.075Z,20.70
2023-01-27T06:01:42.728Z,21.00
2023-01-27T06:04:11.870Z,20.70
2023-01-27T06:06:41.262Z,16.70
2023-01-27T06:09:10.666Z,19.50
2023-01-27T06:11:39.252Z,19.20
2023-01-27T06:14:12.440Z,20.60
2023-01-27T06:16:41.585Z,19.80
2023-01-27T06:19:10.937Z,22.70
2023-01-27T06:21:39.746Z,20.40
2023-01-27T06:24:08.658Z,21.70
2023-01-27T06:26:37.517Z,23.30
2023-01-27T06:29:06.390Z,21.20
2023-01-27T06:31:36.582Z,21.30
2023-01-27T06:34:05.604Z,21.00
2023-01-27T06:36:34.613Z,20.70
2023-01-27T06:39:03.387Z,27.50
2023-01-27T06:41:32.180Z,22.70
2023-01-27T06:44:03.726Z,36.30
2023-01-27T06:46:33.460Z,20.00
2023-01-27T06:49:02.246Z,26.90
2023-01-27T06:51:31.637Z,25.10
2023-01-27T06:54:01.023Z,25.60
2023-01-27T06:56:30.844Z,27.80
2023-01-27T06:59:00.245Z,24.60
2023-01-27T07:01:30.193Z,25.10
2023-01-27T07:03:59.378Z,27.10
2023-01-27T07:06:28.505Z,25.40
2023-01-27T07:08:57.653Z,22.80
2023-01-27T07:11:29.138Z,28.00
2023-01-27T07:13:58.295Z,28.70
2023-01-27T07:16:29.505Z,29.80
2023-01-27T07:18:59.558Z,28.60
2023-01-27T07:21:28.660Z,27.10
2023-01-27T07:23:57.496Z,25.70
2023-01-27T07:26:26.125Z,24.40
2023-01-27T07:28:56.479Z,18.10
2023-01-27T07:31:25.128Z,24.80
2023-01-27T07:33:55.983Z,40.70
2023-01-27T11:05:49.105Z,20.50
2023-01-27T11:08:25.160Z,21.20
2023-01-27T11:11:17.676Z,22.10
2023-01-27T11:13:49.953Z,21.90
2023-01-27T11:16:35.860Z,22.20
2023-01-27T11:19:30.980Z,22.40
2023-01-27T11:22:08.058Z,23.00
2023-01-27T11:24:46.875Z,18.50
2023-01-27T11:27:23.540Z,18.90
2023-01-27T11:29:56.010Z,21.60
2023-01-27T11:32:39.924Z,22.60
2023-01-27T11:35:12.474Z,19.80
2023-01-27T11:37:42.344Z,18.90
2023-01-27T11:40:26.586Z,17.70
2023-01-27T11:42:58.357Z,17.80
2023-01-27T11:45:29.222Z,17.30
2023-01-27T11:48:00.112Z,14.80
2023-01-27T11:50:35.161Z,16.10
2023-01-27T11:53:18.634Z,17.30
2023-01-27T11:55:55.381Z,17.50
2023-01-27T11:58:32.837Z,17.50
2023-01-27T12:01:23.229Z,17.50
2023-01-27T12:04:10.537Z,17.80
2023-01-27T12:06:46.005Z,18.80
2023-01-27T12:09:41.845Z,18.50
2023-01-27T12:12:23.099Z,19.50
2023-01-27T12:14:59.849Z,17.90
2023-01-27T12:17:34.938Z,19.90
2023-01-27T12:20:25.217Z,20.70
2023-01-27T12:25:28.076Z,20.70
2023-01-27T12:28:01.712Z,25.40
2023-01-27T12:30:34.630Z,22.10
2023-01-27T12:33:14.990Z,21.10
2023-01-27T12:35:44.058Z,21.10
2023-01-27T12:38:15.026Z,19.50
2023-01-27T12:40:47.060Z,18.60
2023-01-27T12:43:17.299Z,19.10
2023-01-27T12:45:46.392Z,19.50
2023-01-27T12:48:18.386Z,22.20
2023-01-27T12:50:50.114Z,17.10
2023-01-27T12:53:28.057Z,20.70
2023-01-27T12:56:06.115Z,18.70
2023-01-27T12:58:40.538Z,17.10
2023-01-27T13:01:32.224Z,14.90
2023-01-27T13:04:06.621Z,16.70
2023-01-27T13:06:45.449Z,14.30
2023-01-27T13:09:32.305Z,14.40
2023-01-27T13:12:17.179Z,11.70
2023-01-27T13:14:46.240Z,14.80
2023-01-27T13:17:30.617Z,15.10
2023-01-27T13:20:08.331Z,14.60
2023-01-27T13:22:42.183Z,14.70
2023-01-27T13:25:17.004Z,15.80
2023-01-27T13:27:46.865Z,14.30
2023-01-27T13:30:24.362Z,19.10
2023-01-27T13:32:53.764Z,14.50
2023-01-27T13:35:35.023Z,13.20
2023-01-27T13:38:18.715Z,11.70
2023-01-27T13:40:49.306Z,14.70
2023-01-27T13:43:21.346Z,13.40
2023-01-27T13:46:03.201Z,13.00
2023-01-27T13:48:39.554Z,12.30
2023-01-27T13:51:12.227Z,12.30
2023-01-27T13:53:42.967Z,14.40
2023-01-27T13:59:20.090Z,15.20
2023-01-27T14:05:10.970Z,12.00
2023-01-27T14:07:51.698Z,14.20
2023-01-27T14:10:34.769Z,13.30
2023-01-27T14:13:19.017Z,12.90
2023-01-27T14:16:13.939Z,13.70
2023-01-27T14:18:48.961Z,12.80
2023-01-27T14:21:40.248Z,12.50
2023-01-27T14:24:44.211Z,12.00
2023-01-27T14:27:20.766Z,10.80
2023-01-27T14:30:10.187Z,11.30
2023-01-27T14:33:16.940Z,12.00
2023-01-27T14:35:53.337Z,12.30
2023-01-27T14:38:43.451Z,11.70
2023-01-27T14:41:27.825Z,11.60
2023-01-27T14:44:12.669Z,12.20
2023-01-27T14:47:11.869Z,12.60
2023-01-27T14:50:13.432Z,12.00
2023-01-27T14:52:44.953Z,11.00
2023-01-27T14:55:19.605Z,12.10
2023-01-27T14:57:52.244Z,11.90
2023-01-27T15:00:43.622Z,11.80
2023-01-27T15:03:47.714Z,11.90
2023-01-27T15:06:39.338Z,11.90
2023-01-27T15:09:14.373Z,11.80
2023-01-27T15:11:56.368Z,12.50
2023-01-27T15:14:49.843Z,10.30
2023-01-27T15:17:43.593Z,11.30
2023-01-27T15:20:31.165Z,10.10
2023-01-27T15:23:29.872Z,9.20
2023-01-27T15:26:03.019Z,11.90
2023-01-27T15:28:32.842Z,11.50
2023-01-27T15:31:19.795Z,11.10
2023-01-27T15:33:51.835Z,11.70
2023-01-27T15:36:32.994Z,12.40
2023-01-27T15:39:02.440Z,13.30
2023-01-27T15:41:32.522Z,12.30
2023-01-27T15:44:19.113Z,12.20
2023-01-27T15:47:13.063Z,11.20
2023-01-27T15:50:00.565Z,12.20
2023-01-27T15:52:43.044Z,12.10
2023-01-27T15:55:32.297Z,11.40
2023-01-27T15:58:10.329Z,12.60
2023-01-27T16:00:42.755Z,13.30
2023-01-27T16:03:35.437Z,12.60
2023-01-27T16:06:10.015Z,12.40
2023-01-27T16:09:06.389Z,12.40
2023-01-27T16:11:35.289Z,10.80
2023-01-27T16:14:14.500Z,12.20
2023-01-27T16:16:55.296Z,12.60
2023-01-27T16:20:13.825Z,11.50
2023-01-27T16:22:42.719Z,12.30
2023-01-27T16:28:22.488Z,11.80
2023-01-27T16:31:02.746Z,11.50
2023-01-27T16:33:41.284Z,10.60
2023-01-27T16:36:24.990Z,10.30
2023-01-27T16:39:08.712Z,12.00
2023-01-27T16:41:40.313Z,14.10
2023-01-27T16:44:23.333Z,13.60
2023-01-27T16:46:54.689Z,15.60
2023-01-27T16:49:32.267Z,14.50
2023-01-27T16:52:03.790Z,12.20
2023-01-27T16:54:42.967Z,13.10
2023-01-27T16:57:30.565Z,12.80
2023-01-27T17:00:00.664Z,12.30
2023-01-27T17:02:29.595Z,10.60
2023-01-27T17:05:05.018Z,13.60
2023-01-27T17:07:35.066Z,13.20
2023-01-27T17:10:24.400Z,14.30
2023-01-27T17:13:03.260Z,12.90
2023-01-27T17:15:37.049Z,15.30
2023-01-27T17:18:09.671Z,13.80
2023-01-27T17:20:41.950Z,12.30
2023-01-27T17:23:20.852Z,13.00
2023-01-27T17:25:51.092Z,14.30
2023-01-27T17:28:26.797Z,14.60
2023-01-27T17:31:08.045Z,14.10
2023-01-27T17:33:38.663Z,15.80
2023-01-27T17:36:10.361Z,15.30
2023-01-27T17:38:48.576Z,14.80
2023-01-27T17:41:35.738Z,16.20
2023-01-27T17:44:11.257Z,15.20
2023-01-27T17:46:40.064Z,14.30
2023-01-27T17:49:13.514Z,15.90
2023-01-27T17:51:51.629Z,14.50
2023-01-27T17:54:32.895Z,17.50
2023-01-27T17:57:21.402Z,18.30
2023-01-27T18:00:10.004Z,15.70
2023-01-27T18:03:03.135Z,16.80
2023-01-27T18:05:36.173Z,17.30
2023-01-27T18:08:07.292Z,17.90
2023-01-27T18:10:44.369Z,16.10
2023-01-27T18:13:16.660Z,16.30
2023-01-27T18:15:51.854Z,14.10
2023-01-27T18:18:24.768Z,14.40
2023-01-27T18:20:59.690Z,17.20
2023-01-27T18:23:56.469Z,15.00
2023-01-27T18:26:26.557Z,14.80
2023-01-27T18:29:00.972Z,16.50
2023-01-27T18:31:38.551Z,15.00
2023-01-27T18:34:07.265Z,14.90
2023-01-27T18:36:37.705Z,14.90
2023-01-27T18:39:38.825Z,13.00
2023-01-27T18:42:15.885Z,13.70
2023-01-27T18:44:44.709Z,15.20
2023-01-27T18:47:19.781Z,15.60
2023-01-27T18:50:13.000Z,15.20
2023-01-27T18:52:42.451Z,15.30
2023-01-27T18:55:22.710Z,16.30
2023-01-27T18:57:53.417Z,16.30
2023-01-27T19:00:25.328Z,17.30
2023-01-27T19:02:56.553Z,14.60
2023-01-27T19:05:27.439Z,16.30
2023-01-27T19:07:55.910Z,17.50
2023-01-27T19:10:28.555Z,17.00
2023-01-27T19:12:59.576Z,17.70
2023-01-27T19:17:59.097Z,16.80
2023-01-27T19:20:29.226Z,17.40
2023-01-27T19:22:58.606Z,17.50
2023-01-27T19:25:29.440Z,17.40
2023-01-27T19:28:03.573Z,18.40
2023-01-27T19:30:36.484Z,17.80
2023-01-27T19:33:28.146Z,19.50
2023-01-27T19:35:59.014Z,20.10
2023-01-27T19:38:28.791Z,20.20
2023-01-27T19:40:58.113Z,21.50
2023-01-27T19:43:27.890Z,20.80
2023-01-27T19:45:59.270Z,20.40
2023-01-27T19:48:27.933Z,19.70
2023-01-27T19:50:57.532Z,21.30
2023-01-27T19:53:30.267Z,21.80
2023-01-27T19:55:59.193Z,20.50
2023-01-27T19:58:28.911Z,21.10
2023-01-27T20:01:00.128Z,23.40
2023-01-27T20:03:31.058Z,21.80
2023-01-27T20:06:00.539Z,25.00
2023-01-27T20:08:30.621Z,23.60
2023-01-27T20:11:02.031Z,22.40
2023-01-27T20:13:31.883Z,22.20
2023-01-27T20:16:01.394Z,16.90
2023-01-27T20:18:31.503Z,21.50
2023-01-27T20:21:01.017Z,19.80
2023-01-27T20:23:29.999Z,21.60
2023-01-27T20:25:59.197Z,20.90
2023-01-27T20:28:28.700Z,22.40
2023-01-27T20:30:59.944Z,23.00
2023-01-27T20:33:29.157Z,21.20
2023-01-27T20:35:58.347Z,24.80
2023-01-27T20:38:28.061Z,25.20
2023-01-27T20:40:57.461Z,22.20
2023-01-27T20:43:35.265Z,23.30
2023-01-27T20:46:06.647Z,21.20
2023-01-27T20:48:36.109Z,22.50
2023-01-27T20:51:07.805Z,22.50
2023-01-27T20:53:41.987Z,23.50
2023-01-27T20:56:10.564Z,23.30
2023-01-27T20:58:40.587Z,25.00
2023-01-27T21:01:20.355Z,22.50
2023-01-27T21:03:49.355Z,23.40
2023-01-27T21:06:20.304Z,24.10
2023-01-27T21:08:50.708Z,22.00
2023-01-27T21:11:21.601Z,23.80
2023-01-27T21:13:52.165Z,23.40
2023-01-27T21:16:24.349Z,23.10
2023-01-27T21:18:53.819Z,23.40
2023-01-27T21:21:26.379Z,23.30
2023-01-27T21:23:56.068Z,23.00
2023-01-27T21:26:24.910Z,26.10
2023-01-27T21:28:55.630Z,21.50
2023-01-27T21:33:55.703Z,24.70
2023-01-27T21:36:25.379Z,24.80
2023-01-27T21:38:54.271Z,24.40
2023-01-27T21:41:42.714Z,26.30
2023-01-27T21:44:36.395Z,26.10
2023-01-27T21:47:05.988Z,27.90
2023-01-27T21:49:58.534Z,25.60
2023-01-27T21:52:40.642Z,26.30
2023-01-27T21:55:10.871Z,24.20
2023-01-27T21:57:39.335Z,24.80
2023-01-27T22:02:42.541Z,25.00
2023-01-27T22:05:11.597Z,25.60
2023-01-27T22:07:42.490Z,24.00
2023-01-27T22:10:17.199Z,23.30
2023-01-27T22:12:46.505Z,26.10
2023-01-27T22:15:15.863Z,25.20
2023-01-27T22:17:47.993Z,26.20
2023-01-27T22:20:17.475Z,26.20
2023-01-27T22:22:48.312Z,26.50
2023-01-27T22:25:17.778Z,26.60
2023-01-27T22:27:46.529Z,24.80
2023-01-27T22:30:17.133Z,24.50
2023-01-27T22:32:46.579Z,24.90
2023-01-27T22:35:16.130Z,26.20
2023-01-27T22:37:45.339Z,26.80
2023-01-27T22:40:14.846Z,26.50
2023-01-27T22:42:43.371Z,20.20
2023-01-27T22:45:12.976Z,23.20
2023-01-27T22:47:41.875Z,26.20
2023-01-27T22:50:11.433Z,24.20
2023-01-27T22:52:40.262Z,26.90
2023-01-27T22:55:09.963Z,25.20
2023-01-27T22:57:39.329Z,26.10
2023-01-27T23:00:09.917Z,25.70
2023-01-27T23:05:10.010Z,25.30
2023-01-27T23:07:38.476Z,25.10
2023-01-27T23:10:08.184Z,24.70
2023-01-27T23:12:36.692Z,26.80
2023-01-27T23:15:06.171Z,26.30
2023-01-27T23:17:34.858Z,20.20
2023-01-27T23:20:04.299Z,26.00
2023-01-27T23:22:33.491Z,18.60
2023-01-27T23:25:02.258Z,24.30
2023-01-27T23:27:31.131Z,24.00
2023-01-27T23:30:00.443Z,22.80
2023-01-27T23:32:29.334Z,25.60
2023-01-27T23:34:58.112Z,24.10
2023-01-27T23:37:26.795Z,23.60
2023-01-27T23:39:55.897Z,24.70
2023-01-27T23:42:24.785Z,23.30
2023-01-27T23:44:53.569Z,25.10
2023-01-27T23:47:22.188Z,23.30
2023-01-27T23:49:51.045Z,24.60
2023-01-27T23:52:19.631Z,23.70
2023-01-27T23:54:48.416Z,21.80
2023-01-27T23:57:18.329Z,23.90
2023-01-27T23:59:46.985Z,23.10
